Terminal Aerodrome Forecast
Issued by NWS

Home | Current Version | Previous Version | Text Only | Print | Product List | Glossary On
Versions: 1 2 3 4 5 6 7 8 9 10 11 12 13 14 15
299
FTUS43 KAPX 262324
TAFMBL
TAF
KMBL 262324Z 2700/2724 27017G27KT P6SM -SHRA SCT025 BKN050
     FM270900 27015G27KT P6SM VCSH SCT025 OVC040
     FM272100 25013G23KT P6SM -SHRA SCT025 OVC035=

USA.gov is the U.S. government's official web portal to all federal, state and local government web resources and services.